AirNav  
 
 901 users online  

I83 Salem Municipal Airport
Salem, Indiana, USA


FAA INFORMATION EFFECTIVE 04 JANUARY 2018

Location

FAA Identifier: I83
Lat/Long: 38-36-07.2060N / 086-08-23.9240W
38-36.120100N / 086-08.398733W
38.6020017 / -86.1399789
(estimated)
Elevation: 822 ft. / 251 m (estimated)
Variation: 02W (1985)
From city: 2 miles W of SALEM, IN
Time zone: UTC -5 (UTC -4 during Daylight Saving Time)
Zip code: 47167

Airport Operations

Airport use: Open to the public
Control tower: no
ARTCC: INDIANAPOLIS CENTER
FSS: TERRE HAUTE FLIGHT SERVICE STATION
NOTAMs facility: HUF (NOTAM-D service available)
Attendance: IREG
Wind indicator: lighted
Segmented circle: no
Lights: MIRL RY 10/28 PRESET LOW INTST; TO INCR INTST ACTVT - CTAF.
Beacon: white-green (lighted land airport)
Operates sunset to sunrise.

Airport Communications

CTAF/UNICOM: 123.0
  • UNICOM NOT RGRLY MNTRD.

Nearby radio navigation aids

VOR radial/distance  VOR name  Freq  Var
BQMr319/31.6BOWMAN VOR/DME112.2004W
OOMr148/39.3HOOSIER VORTAC110.2002W
IIUr317/39.9LOUISVILLE VORTAC114.8001E

 
NDB name  Hdg/Dist  Freq  Var  ID
GODMAN352/39.439603WGOI --. --- ..

Airport Services

Fuel available: 100LL
FUEL AVBL 24 HRS WITH CREDIT CARD.
Parking: hangars and tiedowns
Airframe service: NONE
Powerplant service: NONE

Runway Information

Runway 10/28

Dimensions: 2738 x 50 ft. / 835 x 15 m
Surface: asphalt, in good condition
Weight bearing capacity: 
Single wheel: 7.0
Runway edge lights: medium intensity
Gradient: W
RUNWAY 10  RUNWAY 28
Latitude: 38-36.150167N38-36.081667N
Longitude: 086-08.722167W086-08.154000W
Elevation: 821.0 ft.810.0 ft.
Gradient: 0.5%0.4% UP
Traffic pattern: leftleft
Displaced threshold: no238 ft.
Markings: basic, in good conditionbasic, in good condition
Visual slope indicator: 2-light PAPI on left (4.00 degrees glide path)
Runway end identifier lights: yes
REIL OTS INDEFLY.
yes
Obstructions: 61 ft. trees, 1398 ft. from runway, 53 ft. right of centerline, 19:1 slope to clear27 ft. bldg, 257 ft. from runway, 129 ft. left of centerline, 2:1 slope to clear
APCH RATIO 19:1 TO DSPLCD THLD.

Airport Ownership and Management from official FAA records

Ownership: Publicly-owned
Owner: SALEM BOARD OF AVN CMSNRS
2593 W. STATE ROAD 56
SALEM, IN 47167
Phone 812-472-3749
Manager: LOWELL DEPOY
2593 W STATE ROAD 56
SALEM, IN 47167
Phone 812-472-3749
MGR CELL: 812-896-4775

Airport Operational Statistics

Aircraft based on the field: 36
Single engine airplanes: 35
Ultralights: 1
    
Aircraft operations: avg 105/week *
73% local general aviation
27% transient general aviation
* for 12-month period ending 31 December 2015

Instrument Procedures

There are no published instrument procedures at I83.

Some nearby airports with instrument procedures:

KBFR - Virgil I Grissom Municipal Airport (20 nm NW)
KSER - Freeman Municipal Airport (22 nm NE)
KJVY - Clark Regional Airport (24 nm SE)
KFRH - French Lick Municipal Airport (24 nm W)
KLOU - Bowman Field Airport (32 nm SE)
 
Loc | Ops | Rwys | IFR | FBO | Links
Com | Nav | Svcs | Stats | Notes


 
Area around I83 (Salem Municipal Airport)
 
Road maps at: MapQuest Bing Google
 
Aerial photo
WARNING: Photo may not be current or correct
Aerial photo of I83 (Salem Municipal Airport)
Do you have a better or more recent aerial photo of Salem Municipal Airport that you would like to share? If so, please send us your photo.

 
Sectional chart

 
Airport distance calculator
Flying to Salem Municipal Airport? Find the distance to fly.

From to I83

Sunrise and sunset
Times for 21-Jan-2018
 Local
(UTC-5)
 Zulu
(UTC)
Morning civil twilight07:3112:31
Sunrise07:5912:59
Sunset17:5322:53
Evening civil twilight18:2123:21

Current date and time
Zulu (UTC)  22-Jan-2018 00:20:48
Local (UTC-5)  21-Jan-2018 19:20:48
 
METAR
KFRH 
24nm W 
212355Z AUTO 17003KT 10SM OVC014 12/ A3001 RMK AO1
KSDF 
32nm SE 
212356Z 18006KT 10SM OVC030 14/11 A3003 RMK AO2 SLP169 T01440106 10150 20133 56006
KLOU 
32nm SE 
212353Z 18004KT 10SM OVC028 14/11 A3005 RMK AO2 RAB35E44 SLP174 P0000 60000 T01390111 10144 20133 55004
KIMS 
33nm E 
212355Z AUTO 18003KT 10SM OVC020 11/09 A3005 RMK AO1
KBMG 
40nm NW 
212353Z 20007KT 2 1/2SM BR OVC004 11/10 A3000 RMK AO2 SLP159 T01060100 10111 20106 51004
KBAK 
41nm N 
212349Z 16008KT 3SM BR SCT004 OVC011 09/08 A3002
KHNB 
44nm SW 
212356Z AUTO 15005KT 10SM OVC025 11/10 A3001 RMK AO2 RAB33E52 SLP163 P0004 60004 T01110100 10117 20106 56002
KFTK 
44nm S 
212356Z 15006KT 10SM FEW049 SCT060 BKN080 13/11 A3005 RMK AO2A SLP179 ALSTG/SLP ESTMD T01300110 53004
KDCY 
47nm W 
212355Z AUTO 17008KT 7SM OVC012 08/07 A2999 RMK AO2 T00770067 10096 20076
TAF
KSDF 
32nm SE 
211723Z 2118/2224 19009KT P6SM OVC019 FM220200 16007KT P6SM OVC060 FM220600 16009KT P6SM BKN060 WS018/19043KT FM221200 17013G20KT P6SM OVC200 FM221700 18014G24KT P6SM -SHRA BKN040 FM222200 19013G21KT P6SM BKN035
NOTAMs
Click for the latest NOTAMs
NOTAMs are issued by the DoD/FAA and will open in a separate window not controlled by AirNav.

 

 
 

FBO, Fuel Providers, and Aircraft Ground Support

  
 Business Name 
 
 Contact 
 
 Services / Description 
 
Fuel Prices
 
Comments
  
Salem Municipal Airport 812-883-4265
812-883-4264
[web site]
[email]
Aviation fuel, Hangar leasing / sales, Public telephone, Internet access, Restrooms

More info about Salem Municipal Airport
independent
100LL
SS $4.28 
 Updated 26-Dec-2017
 
   1 read write
SS=Self service
Update Fuel Prices
 

Would you like to see your business listed on this page?

 If your business provides an interesting product or service to pilots, flight crews, aircraft, or users of the Salem Municipal Airport, you should consider listing it here.  To start the listing process, click on the button below
 
Add a business
 

Other Pages about Salem Municipal Airport

Update a link
 
Copyright © AirNav, LLC. All rights reserved. Privacy Policy  Contact